Aviation Digital Data Service (ADDS)

Output produced by METARs form (1716 UTC 26 September 2016)
found at http://www.aviationweather.gov/adds/metars/
 
KLGA 261517Z 2615/2712 18010G17KT P6SM SCT045 SCT250 
     FM261800 18012G19KT P6SM SCT050 SCT250 
     FM270100 19011KT P6SM BKN050 
     FM270600 22010KT 2SM SHRA BR BKN008 OVC015